sensor_id;sensor_type;location;lat;lon;timestamp;P1;durP1;ratioP1;P2;durP2;ratioP2
18883;SDS011;9574;47.282;9.640;2023-04-03T00:01:26;0.77;;;0.77;;
18883;SDS011;9574;47.282;9.640;2023-04-03T00:03:53;0.87;;;0.80;;
18883;SDS011;9574;47.282;9.640;2023-04-03T00:06:21;1.00;;;0.90;;
18883;SDS011;9574;47.282;9.640;2023-04-03T00:08:50;0.70;;;0.70;;
18883;SDS011;9574;47.282;9.640;2023-04-03T00:11:29;0.80;;;0.80;;
18883;SDS011;9574;47.282;9.640;2023-04-03T00:13:56;0.90;;;0.90;;
18883;SDS011;9574;47.282;9.640;2023-04-03T00:16:23;0.83;;;0.70;;
18883;SDS011;9574;47.282;9.640;2023-04-03T00:18:51;0.70;;;0.70;;
18883;SDS011;9574;47.282;9.640;2023-04-03T00:21:19;0.70;;;0.70;;
18883;SDS011;9574;47.282;9.640;2023-04-03T00:23:47;0.80;;;0.80;;
18883;SDS011;9574;47.282;9.640;2023-04-03T00:26:15;0.80;;;0.80;;
18883;SDS011;9574;47.282;9.640;2023-04-03T00:28:51;0.90;;;0.90;;
18883;SDS011;9574;47.282;9.640;2023-04-03T00:31:19;0.70;;;0.70;;
18883;SDS011;9574;47.282;9.640;2023-04-03T00:33:46;1.00;;;0.90;;
18883;SDS011;9574;47.282;9.640;2023-04-03T00:36:13;0.80;;;0.80;;
18883;SDS011;9574;47.282;9.640;2023-04-03T00:38:42;0.80;;;0.80;;
18883;SDS011;9574;47.282;9.640;2023-04-03T00:41:11;1.20;;;1.00;;
18883;SDS011;9574;47.282;9.640;2023-04-03T00:43:38;1.10;;;1.00;;
18883;SDS011;9574;47.282;9.640;2023-04-03T00:46:11;1.27;;;1.00;;
18883;SDS011;9574;47.282;9.640;2023-04-03T00:48:39;0.80;;;0.80;;
18883;SDS011;9574;47.282;9.640;2023-04-03T00:51:11;0.70;;;0.70;;
18883;SDS011;9574;47.282;9.640;2023-04-03T00:53:41;1.03;;;0.93;;
18883;SDS011;9574;47.282;9.640;2023-04-03T00:56:12;0.83;;;0.83;;
18883;SDS011;9574;47.282;9.640;2023-04-03T00:58:47;0.70;;;0.70;;
18883;SDS011;9574;47.282;9.640;2023-04-03T01:01:23;2.00;;;0.87;;
18883;SDS011;9574;47.282;9.640;2023-04-03T01:03:51;0.93;;;0.87;;
18883;SDS011;9574;47.282;9.640;2023-04-03T01:06:21;0.90;;;0.90;;
18883;SDS011;9574;47.282;9.640;2023-04-03T01:08:52;0.80;;;0.80;;
18883;SDS011;9574;47.282;9.640;2023-04-03T01:11:23;1.03;;;0.93;;
18883;SDS011;9574;47.282;9.640;2023-04-03T01:13:53;1.40;;;1.20;;
18883;SDS011;9574;47.282;9.640;2023-04-03T01:16:21;0.83;;;0.83;;
18883;SDS011;9574;47.282;9.640;2023-04-03T01:18:49;1.17;;;0.90;;
18883;SDS011;9574;47.282;9.640;2023-04-03T01:24:22;1.20;;;1.10;;
18883;SDS011;9574;47.282;9.640;2023-04-03T01:26:57;1.23;;;1.13;;
18883;SDS011;9574;47.282;9.640;2023-04-03T01:29:30;2.20;;;1.50;;
18883;SDS011;9574;47.282;9.640;2023-04-03T01:32:01;1.60;;;1.30;;
18883;SDS011;9574;47.282;9.640;2023-04-03T01:34:30;1.77;;;1.50;;
18883;SDS011;9574;47.282;9.640;2023-04-03T01:36:57;1.30;;;1.20;;
18883;SDS011;9574;47.282;9.640;2023-04-03T01:39:28;1.40;;;1.30;;
18883;SDS011;9574;47.282;9.640;2023-04-03T01:42:03;1.40;;;1.30;;
18883;SDS011;9574;47.282;9.640;2023-04-03T01:44:30;1.50;;;1.40;;
18883;SDS011;9574;47.282;9.640;2023-04-03T01:46:59;1.43;;;1.33;;
18883;SDS011;9574;47.282;9.640;2023-04-03T01:49:27;1.50;;;1.40;;
18883;SDS011;9574;47.282;9.640;2023-04-03T01:51:55;1.90;;;1.60;;
18883;SDS011;9574;47.282;9.640;2023-04-03T01:54:22;3.23;;;1.67;;
18883;SDS011;9574;47.282;9.640;2023-04-03T01:56:50;2.97;;;1.80;;
18883;SDS011;9574;47.282;9.640;2023-04-03T01:59:17;1.67;;;1.50;;
18883;SDS011;9574;47.282;9.640;2023-04-03T02:01:44;1.87;;;1.77;;
18883;SDS011;9574;47.282;9.640;2023-04-03T02:04:12;2.63;;;2.07;;
18883;SDS011;9574;47.282;9.640;2023-04-03T02:06:41;1.90;;;1.70;;
18883;SDS011;9574;47.282;9.640;2023-04-03T02:09:11;2.33;;;1.80;;
18883;SDS011;9574;47.282;9.640;2023-04-03T02:11:40;2.43;;;1.90;;
18883;SDS011;9574;47.282;9.640;2023-04-03T02:14:07;1.67;;;1.53;;
18883;SDS011;9574;47.282;9.640;2023-04-03T02:16:40;2.57;;;1.93;;
18883;SDS011;9574;47.282;9.640;2023-04-03T02:19:08;2.13;;;1.70;;
18883;SDS011;9574;47.282;9.640;2023-04-03T02:21:35;2.40;;;1.80;;
18883;SDS011;9574;47.282;9.640;2023-04-03T02:24:06;1.93;;;1.70;;
18883;SDS011;9574;47.282;9.640;2023-04-03T02:26:47;2.47;;;2.00;;
18883;SDS011;9574;47.282;9.640;2023-04-03T02:29:14;3.90;;;1.80;;
18883;SDS011;9574;47.282;9.640;2023-04-03T02:31:42;3.20;;;2.03;;
18883;SDS011;9574;47.282;9.640;2023-04-03T02:34:11;3.60;;;2.07;;
18883;SDS011;9574;47.282;9.640;2023-04-03T02:36:39;2.37;;;2.07;;
18883;SDS011;9574;47.282;9.640;2023-04-03T02:39:08;2.50;;;2.07;;
18883;SDS011;9574;47.282;9.640;2023-04-03T02:41:35;3.67;;;2.80;;
18883;SDS011;9574;47.282;9.640;2023-04-03T02:44:03;2.90;;;2.50;;
18883;SDS011;9574;47.282;9.640;2023-04-03T02:46:32;3.53;;;2.50;;
18883;SDS011;9574;47.282;9.640;2023-04-03T02:49:00;3.13;;;2.60;;
18883;SDS011;9574;47.282;9.640;2023-04-03T02:51:29;5.77;;;2.40;;
18883;SDS011;9574;47.282;9.640;2023-04-03T02:53:56;5.70;;;2.47;;
18883;SDS011;9574;47.282;9.640;2023-04-03T02:56:26;2.40;;;2.20;;
18883;SDS011;9574;47.282;9.640;2023-04-03T02:58:55;3.23;;;2.80;;
18883;SDS011;9574;47.282;9.640;2023-04-03T03:01:22;4.50;;;3.17;;
18883;SDS011;9574;47.282;9.640;2023-04-03T03:03:50;3.30;;;2.60;;
18883;SDS011;9574;47.282;9.640;2023-04-03T03:06:26;5.27;;;2.67;;
18883;SDS011;9574;47.282;9.640;2023-04-03T03:08:55;4.77;;;3.13;;
18883;SDS011;9574;47.282;9.640;2023-04-03T03:11:22;4.80;;;2.77;;
18883;SDS011;9574;47.282;9.640;2023-04-03T03:13:53;3.63;;;3.07;;
18883;SDS011;9574;47.282;9.640;2023-04-03T03:16:20;4.93;;;2.93;;
18883;SDS011;9574;47.282;9.640;2023-04-03T03:18:48;4.57;;;3.07;;
18883;SDS011;9574;47.282;9.640;2023-04-03T03:21:15;3.93;;;2.80;;
18883;SDS011;9574;47.282;9.640;2023-04-03T03:23:46;4.70;;;3.07;;
18883;SDS011;9574;47.282;9.640;2023-04-03T03:26:13;4.70;;;3.13;;
18883;SDS011;9574;47.282;9.640;2023-04-03T03:28:47;5.57;;;3.53;;
18883;SDS011;9574;47.282;9.640;2023-04-03T03:31:18;4.40;;;3.33;;
18883;SDS011;9574;47.282;9.640;2023-04-03T03:33:47;4.80;;;2.97;;
18883;SDS011;9574;47.282;9.640;2023-04-03T03:36:14;4.97;;;3.60;;
18883;SDS011;9574;47.282;9.640;2023-04-03T03:38:46;6.53;;;3.60;;
18883;SDS011;9574;47.282;9.640;2023-04-03T03:41:15;4.93;;;3.30;;
18883;SDS011;9574;47.282;9.640;2023-04-03T03:43:42;4.80;;;3.43;;
18883;SDS011;9574;47.282;9.640;2023-04-03T03:46:15;5.80;;;4.10;;
18883;SDS011;9574;47.282;9.640;2023-04-03T03:48:43;6.07;;;3.60;;
18883;SDS011;9574;47.282;9.640;2023-04-03T03:51:10;6.10;;;4.03;;
18883;SDS011;9574;47.282;9.640;2023-04-03T03:53:37;6.57;;;4.27;;
18883;SDS011;9574;47.282;9.640;2023-04-03T03:56:11;6.13;;;3.80;;
18883;SDS011;9574;47.282;9.640;2023-04-03T03:58:38;5.73;;;3.70;;
18883;SDS011;9574;47.282;9.640;2023-04-03T04:01:08;6.33;;;3.50;;
18883;SDS011;9574;47.282;9.640;2023-04-03T04:03:38;5.87;;;3.70;;
18883;SDS011;9574;47.282;9.640;2023-04-03T04:06:05;6.73;;;4.10;;
18883;SDS011;9574;47.282;9.640;2023-04-03T04:08:33;5.10;;;3.53;;
18883;SDS011;9574;47.282;9.640;2023-04-03T04:11:01;6.63;;;3.80;;
18883;SDS011;9574;47.282;9.640;2023-04-03T04:13:31;5.07;;;3.60;;
18883;SDS011;9574;47.282;9.640;2023-04-03T04:15:59;6.17;;;3.37;;
18883;SDS011;9574;47.282;9.640;2023-04-03T04:18:29;5.80;;;3.67;;
18883;SDS011;9574;47.282;9.640;2023-04-03T04:20:57;5.40;;;3.50;;
18883;SDS011;9574;47.282;9.640;2023-04-03T04:23:26;10.03;;;3.90;;
18883;SDS011;9574;47.282;9.640;2023-04-03T04:25:53;6.37;;;4.13;;
18883;SDS011;9574;47.282;9.640;2023-04-03T04:28:21;6.67;;;4.47;;
18883;SDS011;9574;47.282;9.640;2023-04-03T04:30:50;6.40;;;4.30;;
18883;SDS011;9574;47.282;9.640;2023-04-03T04:33:17;5.97;;;4.23;;
18883;SDS011;9574;47.282;9.640;2023-04-03T04:35:46;7.53;;;4.00;;
18883;SDS011;9574;47.282;9.640;2023-04-03T04:38:14;5.27;;;3.67;;
18883;SDS011;9574;47.282;9.640;2023-04-03T04:40:41;7.93;;;4.17;;
18883;SDS011;9574;47.282;9.640;2023-04-03T04:43:10;11.10;;;3.70;;
18883;SDS011;9574;47.282;9.640;2023-04-03T04:45:39;6.13;;;4.17;;
18883;SDS011;9574;47.282;9.640;2023-04-03T04:48:07;6.20;;;4.13;;
18883;SDS011;9574;47.282;9.640;2023-04-03T04:50:35;9.90;;;4.57;;
18883;SDS011;9574;47.282;9.640;2023-04-03T04:53:03;6.63;;;4.10;;
18883;SDS011;9574;47.282;9.640;2023-04-03T04:55:31;6.90;;;4.13;;
18883;SDS011;9574;47.282;9.640;2023-04-03T04:58:00;7.03;;;4.57;;
18883;SDS011;9574;47.282;9.640;2023-04-03T05:00:28;7.80;;;4.10;;
18883;SDS011;9574;47.282;9.640;2023-04-03T05:02:58;9.73;;;4.47;;
18883;SDS011;9574;47.282;9.640;2023-04-03T05:05:26;6.80;;;4.43;;
18883;SDS011;9574;47.282;9.640;2023-04-03T05:07:56;14.47;;;4.80;;
18883;SDS011;9574;47.282;9.640;2023-04-03T05:10:24;8.23;;;4.27;;
18883;SDS011;9574;47.282;9.640;2023-04-03T05:12:52;6.97;;;4.27;;
18883;SDS011;9574;47.282;9.640;2023-04-03T05:15:20;7.83;;;4.43;;
18883;SDS011;9574;47.282;9.640;2023-04-03T05:17:48;5.90;;;4.13;;
18883;SDS011;9574;47.282;9.640;2023-04-03T05:20:16;7.97;;;4.20;;
18883;SDS011;9574;47.282;9.640;2023-04-03T05:22:45;6.63;;;4.37;;
18883;SDS011;9574;47.282;9.640;2023-04-03T05:25:14;9.03;;;4.50;;
18883;SDS011;9574;47.282;9.640;2023-04-03T05:27:47;7.03;;;4.60;;
18883;SDS011;9574;47.282;9.640;2023-04-03T05:30:14;6.70;;;3.97;;
18883;SDS011;9574;47.282;9.640;2023-04-03T05:32:44;6.03;;;4.17;;
18883;SDS011;9574;47.282;9.640;2023-04-03T05:35:11;5.70;;;4.17;;
18883;SDS011;9574;47.282;9.640;2023-04-03T05:37:40;8.87;;;4.77;;
18883;SDS011;9574;47.282;9.640;2023-04-03T05:40:07;7.57;;;4.63;;
18883;SDS011;9574;47.282;9.640;2023-04-03T05:42:36;8.17;;;4.70;;
18883;SDS011;9574;47.282;9.640;2023-04-03T05:45:09;7.93;;;4.27;;
18883;SDS011;9574;47.282;9.640;2023-04-03T05:47:37;8.13;;;4.60;;
18883;SDS011;9574;47.282;9.640;2023-04-03T05:50:05;6.27;;;3.67;;
18883;SDS011;9574;47.282;9.640;2023-04-03T05:52:36;9.40;;;5.17;;
18883;SDS011;9574;47.282;9.640;2023-04-03T05:55:05;6.20;;;4.33;;
18883;SDS011;9574;47.282;9.640;2023-04-03T05:57:36;6.93;;;4.27;;
18883;SDS011;9574;47.282;9.640;2023-04-03T06:00:04;6.80;;;4.47;;
18883;SDS011;9574;47.282;9.640;2023-04-03T06:02:34;9.07;;;4.50;;
18883;SDS011;9574;47.282;9.640;2023-04-03T06:05:05;6.50;;;4.43;;
18883;SDS011;9574;47.282;9.640;2023-04-03T06:07:33;7.40;;;4.67;;
18883;SDS011;9574;47.282;9.640;2023-04-03T06:10:05;10.90;;;4.93;;
18883;SDS011;9574;47.282;9.640;2023-04-03T06:12:40;8.33;;;4.57;;
18883;SDS011;9574;47.282;9.640;2023-04-03T06:15:10;8.17;;;4.60;;
18883;SDS011;9574;47.282;9.640;2023-04-03T06:17:39;9.33;;;5.40;;
18883;SDS011;9574;47.282;9.640;2023-04-03T06:20:09;9.07;;;4.77;;
18883;SDS011;9574;47.282;9.640;2023-04-03T06:22:37;9.23;;;5.03;;
18883;SDS011;9574;47.282;9.640;2023-04-03T06:25:09;8.77;;;5.47;;
18883;SDS011;9574;47.282;9.640;2023-04-03T06:27:42;7.67;;;5.23;;
18883;SDS011;9574;47.282;9.640;2023-04-03T06:30:13;11.33;;;5.40;;
18883;SDS011;9574;47.282;9.640;2023-04-03T06:32:41;8.13;;;4.93;;
18883;SDS011;9574;47.282;9.640;2023-04-03T06:35:10;9.17;;;5.27;;
18883;SDS011;9574;47.282;9.640;2023-04-03T06:37:40;11.13;;;5.70;;
18883;SDS011;9574;47.282;9.640;2023-04-03T06:40:09;7.53;;;4.73;;
18883;SDS011;9574;47.282;9.640;2023-04-03T06:42:41;10.10;;;5.60;;
18883;SDS011;9574;47.282;9.640;2023-04-03T06:45:10;10.47;;;5.10;;
18883;SDS011;9574;47.282;9.640;2023-04-03T06:47:40;7.53;;;4.57;;
18883;SDS011;9574;47.282;9.640;2023-04-03T06:50:12;10.40;;;5.13;;
18883;SDS011;9574;47.282;9.640;2023-04-03T06:52:43;8.90;;;5.70;;
18883;SDS011;9574;47.282;9.640;2023-04-03T06:55:14;8.73;;;5.43;;
18883;SDS011;9574;47.282;9.640;2023-04-03T06:57:42;8.70;;;5.27;;
18883;SDS011;9574;47.282;9.640;2023-04-03T07:00:10;13.73;;;5.43;;
18883;SDS011;9574;47.282;9.640;2023-04-03T07:02:41;11.17;;;5.40;;
18883;SDS011;9574;47.282;9.640;2023-04-03T07:05:08;9.50;;;5.43;;
18883;SDS011;9574;47.282;9.640;2023-04-03T07:07:36;9.27;;;5.50;;
18883;SDS011;9574;47.282;9.640;2023-04-03T07:10:04;9.27;;;5.37;;
18883;SDS011;9574;47.282;9.640;2023-04-03T07:12:33;8.63;;;5.40;;
18883;SDS011;9574;47.282;9.640;2023-04-03T07:15:01;9.40;;;6.20;;
18883;SDS011;9574;47.282;9.640;2023-04-03T07:17:31;9.47;;;4.97;;
18883;SDS011;9574;47.282;9.640;2023-04-03T07:20:01;9.50;;;5.43;;
18883;SDS011;9574;47.282;9.640;2023-04-03T07:22:31;9.77;;;5.67;;
18883;SDS011;9574;47.282;9.640;2023-04-03T07:24:59;10.20;;;5.57;;
18883;SDS011;9574;47.282;9.640;2023-04-03T07:27:27;10.13;;;6.07;;
18883;SDS011;9574;47.282;9.640;2023-04-03T07:29:56;11.30;;;5.73;;
18883;SDS011;9574;47.282;9.640;2023-04-03T07:32:25;9.90;;;5.77;;
18883;SDS011;9574;47.282;9.640;2023-04-03T07:34:57;9.40;;;6.17;;
18883;SDS011;9574;47.282;9.640;2023-04-03T07:37:25;10.83;;;6.03;;
18883;SDS011;9574;47.282;9.640;2023-04-03T07:39:53;9.87;;;5.53;;
18883;SDS011;9574;47.282;9.640;2023-04-03T07:42:24;10.43;;;5.93;;
18883;SDS011;9574;47.282;9.640;2023-04-03T07:44:52;8.87;;;5.30;;
18883;SDS011;9574;47.282;9.640;2023-04-03T07:47:20;8.67;;;5.03;;
18883;SDS011;9574;47.282;9.640;2023-04-03T07:49:48;7.27;;;4.70;;
18883;SDS011;9574;47.282;9.640;2023-04-03T07:52:18;7.20;;;4.80;;
18883;SDS011;9574;47.282;9.640;2023-04-03T07:54:45;10.37;;;5.63;;
18883;SDS011;9574;47.282;9.640;2023-04-03T07:57:15;7.90;;;4.70;;
18883;SDS011;9574;47.282;9.640;2023-04-03T07:59:46;8.63;;;4.77;;
18883;SDS011;9574;47.282;9.640;2023-04-03T08:02:14;9.50;;;4.60;;
18883;SDS011;9574;47.282;9.640;2023-04-03T08:04:43;8.27;;;5.10;;
18883;SDS011;9574;47.282;9.640;2023-04-03T08:07:13;10.17;;;5.17;;
18883;SDS011;9574;47.282;9.640;2023-04-03T08:09:42;7.60;;;5.10;;
18883;SDS011;9574;47.282;9.640;2023-04-03T08:12:10;8.00;;;5.07;;
18883;SDS011;9574;47.282;9.640;2023-04-03T08:14:39;9.07;;;5.17;;
18883;SDS011;9574;47.282;9.640;2023-04-03T08:17:06;8.93;;;5.10;;
18883;SDS011;9574;47.282;9.640;2023-04-03T08:19:36;8.90;;;4.97;;
18883;SDS011;9574;47.282;9.640;2023-04-03T08:22:06;6.90;;;4.50;;
18883;SDS011;9574;47.282;9.640;2023-04-03T08:24:35;7.00;;;5.00;;
18883;SDS011;9574;47.282;9.640;2023-04-03T08:27:07;10.60;;;5.07;;
18883;SDS011;9574;47.282;9.640;2023-04-03T08:29:34;8.97;;;4.63;;
18883;SDS011;9574;47.282;9.640;2023-04-03T08:32:03;6.60;;;4.67;;
18883;SDS011;9574;47.282;9.640;2023-04-03T08:34:30;10.67;;;5.23;;
18883;SDS011;9574;47.282;9.640;2023-04-03T08:36:59;11.00;;;4.97;;
18883;SDS011;9574;47.282;9.640;2023-04-03T08:39:27;8.80;;;5.07;;
18883;SDS011;9574;47.282;9.640;2023-04-03T08:41:55;8.60;;;5.17;;
18883;SDS011;9574;47.282;9.640;2023-04-03T08:44:30;11.53;;;5.53;;
18883;SDS011;9574;47.282;9.640;2023-04-03T08:47:11;8.70;;;5.80;;
18883;SDS011;9574;47.282;9.640;2023-04-03T08:49:51;11.17;;;5.10;;
18883;SDS011;9574;47.282;9.640;2023-04-03T08:52:27;11.30;;;5.33;;
18883;SDS011;9574;47.282;9.640;2023-04-03T08:55:02;6.43;;;4.30;;
18883;SDS011;9574;47.282;9.640;2023-04-03T08:57:35;8.77;;;4.57;;
18883;SDS011;9574;47.282;9.640;2023-04-03T09:00:16;6.20;;;4.20;;
18883;SDS011;9574;47.282;9.640;2023-04-03T09:02:48;8.97;;;5.50;;
18883;SDS011;9574;47.282;9.640;2023-04-03T09:05:18;6.40;;;4.73;;
18883;SDS011;9574;47.282;9.640;2023-04-03T09:07:53;5.87;;;4.30;;
18883;SDS011;9574;47.282;9.640;2023-04-03T09:10:27;9.20;;;5.07;;
18883;SDS011;9574;47.282;9.640;2023-04-03T09:12:59;7.63;;;4.63;;
18883;SDS011;9574;47.282;9.640;2023-04-03T09:15:34;7.30;;;4.43;;
18883;SDS011;9574;47.282;9.640;2023-04-03T09:18:02;6.93;;;4.47;;
18883;SDS011;9574;47.282;9.640;2023-04-03T09:20:39;7.53;;;4.60;;
18883;SDS011;9574;47.282;9.640;2023-04-03T09:23:14;7.50;;;4.80;;
18883;SDS011;9574;47.282;9.640;2023-04-03T09:25:48;9.10;;;4.80;;
18883;SDS011;9574;47.282;9.640;2023-04-03T09:28:19;7.73;;;4.57;;
18883;SDS011;9574;47.282;9.640;2023-04-03T09:30:53;10.23;;;4.07;;
18883;SDS011;9574;47.282;9.640;2023-04-03T09:33:20;6.47;;;3.73;;
18883;SDS011;9574;47.282;9.640;2023-04-03T09:35:48;7.33;;;4.47;;
18883;SDS011;9574;47.282;9.640;2023-04-03T09:38:18;8.10;;;3.90;;
18883;SDS011;9574;47.282;9.640;2023-04-03T09:40:49;9.17;;;4.57;;
18883;SDS011;9574;47.282;9.640;2023-04-03T09:43:27;7.13;;;5.13;;
18883;SDS011;9574;47.282;9.640;2023-04-03T09:48:51;7.10;;;4.10;;
18883;SDS011;9574;47.282;9.640;2023-04-03T09:51:24;6.43;;;4.23;;
18883;SDS011;9574;47.282;9.640;2023-04-03T09:53:54;7.67;;;4.30;;
18883;SDS011;9574;47.282;9.640;2023-04-03T09:56:23;5.93;;;3.93;;
18883;SDS011;9574;47.282;9.640;2023-04-03T09:58:52;8.23;;;4.50;;
18883;SDS011;9574;47.282;9.640;2023-04-03T10:01:35;8.00;;;4.50;;
18883;SDS011;9574;47.282;9.640;2023-04-03T10:04:08;8.50;;;4.03;;
18883;SDS011;9574;47.282;9.640;2023-04-03T10:06:39;6.70;;;3.83;;
18883;SDS011;9574;47.282;9.640;2023-04-03T10:09:16;10.60;;;3.67;;
18883;SDS011;9574;47.282;9.640;2023-04-03T10:11:59;10.90;;;4.53;;
18883;SDS011;9574;47.282;9.640;2023-04-03T10:14:29;5.03;;;3.63;;
18883;SDS011;9574;47.282;9.640;2023-04-03T10:17:01;5.77;;;3.40;;
18883;SDS011;9574;47.282;9.640;2023-04-03T10:19:43;11.50;;;5.07;;
18883;SDS011;9574;47.282;9.640;2023-04-03T10:22:18;6.80;;;4.07;;
18883;SDS011;9574;47.282;9.640;2023-04-03T10:24:59;16.40;;;6.53;;
18883;SDS011;9574;47.282;9.640;2023-04-03T10:27:36;7.87;;;4.60;;
18883;SDS011;9574;47.282;9.640;2023-04-03T10:30:18;9.47;;;6.00;;
18883;SDS011;9574;47.282;9.640;2023-04-03T10:32:54;8.80;;;3.93;;
18883;SDS011;9574;47.282;9.640;2023-04-03T10:35:34;6.03;;;3.67;;
18883;SDS011;9574;47.282;9.640;2023-04-03T10:38:12;4.37;;;3.30;;
18883;SDS011;9574;47.282;9.640;2023-04-03T10:40:47;5.17;;;3.30;;
18883;SDS011;9574;47.282;9.640;2023-04-03T10:43:23;4.23;;;2.77;;
18883;SDS011;9574;47.282;9.640;2023-04-03T10:46:00;5.03;;;3.43;;
18883;SDS011;9574;47.282;9.640;2023-04-03T10:51:28;5.37;;;3.00;;
18883;SDS011;9574;47.282;9.640;2023-04-03T10:54:03;8.67;;;5.20;;
18883;SDS011;9574;47.282;9.640;2023-04-03T10:56:39;5.07;;;3.47;;
18883;SDS011;9574;47.282;9.640;2023-04-03T10:59:15;6.80;;;3.47;;
18883;SDS011;9574;47.282;9.640;2023-04-03T11:01:51;3.87;;;2.63;;
18883;SDS011;9574;47.282;9.640;2023-04-03T11:04:26;4.80;;;2.87;;
18883;SDS011;9574;47.282;9.640;2023-04-03T11:06:57;3.43;;;2.40;;
18883;SDS011;9574;47.282;9.640;2023-04-03T11:09:28;3.20;;;2.67;;
18883;SDS011;9574;47.282;9.640;2023-04-03T11:12:00;3.83;;;3.13;;
18883;SDS011;9574;47.282;9.640;2023-04-03T11:14:34;3.23;;;2.53;;
18883;SDS011;9574;47.282;9.640;2023-04-03T11:17:05;4.00;;;2.83;;
18883;SDS011;9574;47.282;9.640;2023-04-03T11:19:59;5.13;;;3.50;;
18883;SDS011;9574;47.282;9.640;2023-04-03T11:22:33;5.20;;;3.47;;
18883;SDS011;9574;47.282;9.640;2023-04-03T11:25:13;5.33;;;3.67;;
18883;SDS011;9574;47.282;9.640;2023-04-03T11:27:48;5.90;;;3.80;;
18883;SDS011;9574;47.282;9.640;2023-04-03T11:30:19;5.17;;;3.50;;
18883;SDS011;9574;47.282;9.640;2023-04-03T11:35:50;11.40;;;4.23;;
18883;SDS011;9574;47.282;9.640;2023-04-03T11:38:21;7.13;;;3.50;;
18883;SDS011;9574;47.282;9.640;2023-04-03T11:40:54;5.10;;;4.23;;
18883;SDS011;9574;47.282;9.640;2023-04-03T11:43:25;7.30;;;3.90;;
18883;SDS011;9574;47.282;9.640;2023-04-03T11:45:56;6.13;;;4.07;;
18883;SDS011;9574;47.282;9.640;2023-04-03T11:48:48;5.30;;;3.60;;
18883;SDS011;9574;47.282;9.640;2023-04-03T11:54:42;6.57;;;3.47;;
18883;SDS011;9574;47.282;9.640;2023-04-03T12:03:55;6.47;;;4.30;;
18883;SDS011;9574;47.282;9.640;2023-04-03T12:06:49;8.17;;;4.77;;
18883;SDS011;9574;47.282;9.640;2023-04-03T12:12:43;7.60;;;4.23;;
18883;SDS011;9574;47.282;9.640;2023-04-03T12:18:36;6.60;;;4.03;;
18883;SDS011;9574;47.282;9.640;2023-04-03T12:21:12;5.90;;;3.50;;
18883;SDS011;9574;47.282;9.640;2023-04-03T12:27:01;5.43;;;3.77;;
18883;SDS011;9574;47.282;9.640;2023-04-03T12:29:36;4.77;;;3.37;;
18883;SDS011;9574;47.282;9.640;2023-04-03T12:32:17;5.60;;;3.63;;
18883;SDS011;9574;47.282;9.640;2023-04-03T12:34:59;10.20;;;4.60;;
18883;SDS011;9574;47.282;9.640;2023-04-03T12:38:02;8.07;;;4.00;;
18883;SDS011;9574;47.282;9.640;2023-04-03T12:40:58;4.10;;;3.40;;
18883;SDS011;9574;47.282;9.640;2023-04-03T12:43:43;7.70;;;3.50;;
18883;SDS011;9574;47.282;9.640;2023-04-03T12:46:23;5.67;;;3.40;;
18883;SDS011;9574;47.282;9.640;2023-04-03T12:48:54;4.10;;;3.03;;
18883;SDS011;9574;47.282;9.640;2023-04-03T12:51:25;5.17;;;2.87;;
18883;SDS011;9574;47.282;9.640;2023-04-03T12:54:03;6.60;;;3.40;;
18883;SDS011;9574;47.282;9.640;2023-04-03T12:56:41;5.27;;;3.20;;
18883;SDS011;9574;47.282;9.640;2023-04-03T12:59:13;4.53;;;3.50;;
18883;SDS011;9574;47.282;9.640;2023-04-03T13:01:43;5.43;;;3.10;;
18883;SDS011;9574;47.282;9.640;2023-04-03T13:04:21;3.43;;;2.60;;
18883;SDS011;9574;47.282;9.640;2023-04-03T13:06:49;4.67;;;3.03;;
18883;SDS011;9574;47.282;9.640;2023-04-03T13:09:18;4.13;;;2.83;;
18883;SDS011;9574;47.282;9.640;2023-04-03T13:11:54;3.53;;;2.80;;
18883;SDS011;9574;47.282;9.640;2023-04-03T13:14:26;9.27;;;4.70;;
18883;SDS011;9574;47.282;9.640;2023-04-03T13:16:55;4.53;;;3.10;;
18883;SDS011;9574;47.282;9.640;2023-04-03T13:19:26;3.03;;;2.60;;
18883;SDS011;9574;47.282;9.640;2023-04-03T13:21:55;4.03;;;2.73;;
18883;SDS011;9574;47.282;9.640;2023-04-03T13:24:28;6.23;;;2.87;;
18883;SDS011;9574;47.282;9.640;2023-04-03T13:27:00;3.63;;;2.40;;
18883;SDS011;9574;47.282;9.640;2023-04-03T13:29:29;4.30;;;2.90;;
18883;SDS011;9574;47.282;9.640;2023-04-03T13:32:00;4.33;;;3.00;;
18883;SDS011;9574;47.282;9.640;2023-04-03T13:34:36;3.83;;;2.60;;
18883;SDS011;9574;47.282;9.640;2023-04-03T13:37:06;4.57;;;2.83;;
18883;SDS011;9574;47.282;9.640;2023-04-03T13:39:45;4.40;;;2.50;;
18883;SDS011;9574;47.282;9.640;2023-04-03T13:42:25;3.07;;;2.30;;
18883;SDS011;9574;47.282;9.640;2023-04-03T13:45:16;3.93;;;2.40;;
18883;SDS011;9574;47.282;9.640;2023-04-03T13:47:48;6.47;;;2.37;;
18883;SDS011;9574;47.282;9.640;2023-04-03T13:50:20;3.97;;;2.83;;
18883;SDS011;9574;47.282;9.640;2023-04-03T13:52:53;4.50;;;2.37;;
18883;SDS011;9574;47.282;9.640;2023-04-03T13:55:22;3.50;;;2.17;;
18883;SDS011;9574;47.282;9.640;2023-04-03T13:57:54;2.67;;;2.10;;
18883;SDS011;9574;47.282;9.640;2023-04-03T14:03:16;3.87;;;2.10;;
18883;SDS011;9574;47.282;9.640;2023-04-03T14:05:48;2.03;;;1.83;;
18883;SDS011;9574;47.282;9.640;2023-04-03T14:08:17;2.60;;;2.17;;
18883;SDS011;9574;47.282;9.640;2023-04-03T14:10:48;3.67;;;1.93;;
18883;SDS011;9574;47.282;9.640;2023-04-03T14:13:24;2.40;;;2.20;;
18883;SDS011;9574;47.282;9.640;2023-04-03T14:15:56;3.67;;;2.17;;
18883;SDS011;9574;47.282;9.640;2023-04-03T14:18:28;2.93;;;2.20;;
18883;SDS011;9574;47.282;9.640;2023-04-03T14:20:57;5.20;;;2.33;;
18883;SDS011;9574;47.282;9.640;2023-04-03T14:23:26;2.87;;;2.57;;
18883;SDS011;9574;47.282;9.640;2023-04-03T14:25:56;3.50;;;2.70;;
18883;SDS011;9574;47.282;9.640;2023-04-03T14:28:25;2.40;;;2.20;;
18883;SDS011;9574;47.282;9.640;2023-04-03T14:30:52;3.60;;;2.60;;
18883;SDS011;9574;47.282;9.640;2023-04-03T14:33:21;3.07;;;2.10;;
18883;SDS011;9574;47.282;9.640;2023-04-03T14:35:48;3.03;;;2.20;;
18883;SDS011;9574;47.282;9.640;2023-04-03T14:38:21;5.10;;;2.43;;
18883;SDS011;9574;47.282;9.640;2023-04-03T14:40:51;3.50;;;2.27;;
18883;SDS011;9574;47.282;9.640;2023-04-03T14:43:22;3.47;;;2.20;;
18883;SDS011;9574;47.282;9.640;2023-04-03T14:45:53;3.20;;;2.20;;
18883;SDS011;9574;47.282;9.640;2023-04-03T14:48:21;3.20;;;2.37;;
18883;SDS011;9574;47.282;9.640;2023-04-03T14:50:50;2.73;;;2.10;;
18883;SDS011;9574;47.282;9.640;2023-04-03T14:53:19;2.60;;;2.07;;
18883;SDS011;9574;47.282;9.640;2023-04-03T14:55:49;2.10;;;1.90;;
18883;SDS011;9574;47.282;9.640;2023-04-03T14:58:20;2.20;;;1.70;;
18883;SDS011;9574;47.282;9.640;2023-04-03T15:00:56;2.97;;;2.33;;
18883;SDS011;9574;47.282;9.640;2023-04-03T15:03:25;2.67;;;2.17;;
18883;SDS011;9574;47.282;9.640;2023-04-03T15:05:52;3.77;;;2.70;;
18883;SDS011;9574;47.282;9.640;2023-04-03T15:08:22;2.70;;;2.40;;
18883;SDS011;9574;47.282;9.640;2023-04-03T15:10:54;2.40;;;1.80;;
18883;SDS011;9574;47.282;9.640;2023-04-03T15:13:23;2.80;;;2.20;;
18883;SDS011;9574;47.282;9.640;2023-04-03T15:15:52;2.53;;;2.33;;
18883;SDS011;9574;47.282;9.640;2023-04-03T15:18:24;3.77;;;2.27;;
18883;SDS011;9574;47.282;9.640;2023-04-03T15:20:55;3.37;;;2.50;;
18883;SDS011;9574;47.282;9.640;2023-04-03T15:23:23;3.17;;;2.30;;
18883;SDS011;9574;47.282;9.640;2023-04-03T15:25:54;3.37;;;2.60;;
18883;SDS011;9574;47.282;9.640;2023-04-03T15:28:23;2.77;;;2.17;;
18883;SDS011;9574;47.282;9.640;2023-04-03T15:30:56;3.03;;;2.27;;
18883;SDS011;9574;47.282;9.640;2023-04-03T15:33:24;5.83;;;2.40;;
18883;SDS011;9574;47.282;9.640;2023-04-03T15:35:52;3.90;;;2.50;;
18883;SDS011;9574;47.282;9.640;2023-04-03T15:38:22;3.77;;;2.37;;
18883;SDS011;9574;47.282;9.640;2023-04-03T15:40:51;2.73;;;2.00;;
18883;SDS011;9574;47.282;9.640;2023-04-03T15:43:21;2.40;;;2.00;;
18883;SDS011;9574;47.282;9.640;2023-04-03T15:45:49;4.30;;;2.33;;
18883;SDS011;9574;47.282;9.640;2023-04-03T15:48:18;4.67;;;2.30;;
18883;SDS011;9574;47.282;9.640;2023-04-03T15:50:46;3.17;;;2.20;;
18883;SDS011;9574;47.282;9.640;2023-04-03T15:53:14;2.47;;;2.20;;
18883;SDS011;9574;47.282;9.640;2023-04-03T15:55:45;3.70;;;2.40;;
18883;SDS011;9574;47.282;9.640;2023-04-03T15:58:14;4.50;;;2.50;;